Time;durP1;ratioP1;P1;durP2;ratioP2;P2;SDS_P1;SDS_P2;PMS_P1;PMS_P2;Temp;Humidity;BMP_temperature;BMP_pressure;BME280_temperature;BME280_humidity;BME280_pressure;Samples;Min_cycle;Max_cycle;Signal;HPM_P1;HPM_P2
2023/01/15 00:01:23;;;;;;;2.05;0.80;;;;;;;7.31;94.13;98225.06;5043520;28;20037;-79
2023/01/15 00:03:48;;;;;;;3.47;0.80;;;;;;;6.97;93.71;98220.38;5043531;28;20045;-80
2023/01/15 00:06:15;;;;;;;2.33;0.52;;;;;;;6.96;94.70;98227.69;5043318;28;20025;-79
2023/01/15 00:08:41;;;;;;;3.88;0.70;;;;;;;6.91;93.49;98227.72;5042710;28;20053;-79
2023/01/15 00:11:06;;;;;;;5.57;0.68;;;;;;;6.81;93.10;98238.59;5042561;28;20037;-79
2023/01/15 00:13:31;;;;;;;4.70;1.45;;;;;;;6.63;93.01;98236.19;5043178;28;20041;-79
2023/01/15 00:16:06;;;;;;;3.15;0.68;;;;;;;6.77;94.03;98232.94;5043442;28;20158;-80
2023/01/15 00:18:31;;;;;;;4.22;0.70;;;;;;;6.87;93.38;98222.03;5043255;28;20529;-80
2023/01/15 00:20:58;;;;;;;5.60;0.68;;;;;;;6.91;92.92;98227.72;5043087;28;20076;-79
2023/01/15 00:28:56;;;;;;;2.72;0.98;;;;;;;7.19;93.01;98238.94;5042284;28;20036;-84
2023/01/15 00:31:21;;;;;;;1.87;0.87;;;;;;;7.17;91.85;98251.16;5042549;28;20377;-80
2023/01/15 00:33:47;;;;;;;3.42;0.65;;;;;;;7.21;91.87;98250.31;5057734;28;20262;-81
2023/01/15 00:36:12;;;;;;;4.77;1.70;;;;;;;7.20;91.66;98245.19;5042058;28;20721;-80
2023/01/15 00:38:37;;;;;;;4.17;0.80;;;;;;;7.30;92.01;98249.75;5041653;28;20266;-81
2023/01/15 00:41:03;;;;;;;3.78;0.70;;;;;;;7.28;92.24;98255.41;5042068;28;20257;-81
2023/01/15 00:43:28;;;;;;;3.05;0.68;;;;;;;6.98;91.64;98265.31;5042324;28;20887;-80
2023/01/15 00:45:53;;;;;;;2.53;0.70;;;;;;;7.21;92.60;98252.22;5040401;28;20063;-80
2023/01/15 00:48:18;;;;;;;3.63;1.17;;;;;;;7.29;91.71;98242.69;5041420;28;20379;-81
2023/01/15 00:50:44;;;;;;;5.30;0.80;;;;;;;7.20;90.85;98261.47;5041569;28;20258;-80
2023/01/15 00:53:09;;;;;;;2.83;1.20;;;;;;;6.97;90.58;98247.47;5041969;28;20246;-81
2023/01/15 00:55:34;;;;;;;2.27;0.90;;;;;;;7.04;91.78;98241.75;5041837;28;20865;-79
2023/01/15 00:57:59;;;;;;;4.13;0.80;;;;;;;7.20;92.27;98228.94;5041640;28;20300;-80
2023/01/15 01:00:25;;;;;;;1.80;0.70;;;;;;;7.18;91.13;98240.03;5041686;28;20029;-79
2023/01/15 01:02:50;;;;;;;2.65;1.25;;;;;;;7.26;90.59;98230.50;5041782;28;20297;-78
2023/01/15 01:05:15;;;;;;;4.13;1.37;;;;;;;6.92;90.24;98228.50;5040753;28;20095;-79
2023/01/15 01:07:40;;;;;;;3.63;1.00;;;;;;;6.80;90.56;98226.94;5041328;28;20282;-81
2023/01/15 01:10:06;;;;;;;4.60;1.10;;;;;;;6.73;91.59;98219.09;5041839;28;20051;-79
2023/01/15 01:12:32;;;;;;;4.50;0.95;;;;;;;6.94;91.28;98220.91;5041849;28;21030;-79
2023/01/15 01:14:57;;;;;;;2.03;0.73;;;;;;;6.92;91.00;98201.41;5041627;28;20044;-80
2023/01/15 01:17:22;;;;;;;15.73;1.60;;;;;;;6.85;88.63;98189.00;5040376;28;20262;-79
2023/01/15 01:19:47;;;;;;;2.78;1.15;;;;;;;6.85;87.67;98202.56;5041513;28;20258;-80
2023/01/15 01:22:13;;;;;;;3.25;0.40;;;;;;;6.84;86.31;98189.25;5042690;28;20040;-80
2023/01/15 01:24:38;;;;;;;2.70;0.57;;;;;;;6.84;86.33;98181.94;5045954;28;20040;-80
2023/01/15 01:27:03;;;;;;;3.45;0.90;;;;;;;6.83;84.91;98183.06;5045794;28;20266;-80
2023/01/15 01:29:28;;;;;;;3.70;0.70;;;;;;;6.74;85.64;98171.16;5044947;28;20045;-80
2023/01/15 01:31:54;;;;;;;3.75;0.70;;;;;;;6.83;85.48;98191.19;5045351;28;20265;-80
2023/01/15 01:34:19;;;;;;;1.63;0.17;;;;;;;6.95;84.54;98226.06;5045310;28;20389;-80
2023/01/15 01:36:45;;;;;;;2.35;0.40;;;;;;;6.97;83.35;98236.63;5045276;28;20490;-80
2023/01/15 01:39:15;;;;;;;1.52;0.40;;;;;;;6.92;82.48;98234.75;5044955;28;20123;-79
2023/01/15 01:41:41;;;;;;;2.50;0.40;;;;;;;6.89;83.27;98222.56;5044829;28;20167;-80
2023/01/15 01:44:32;;;;;;;1.45;0.25;;;;;;;6.93;82.46;98230.97;5044682;28;20131;-80
2023/01/15 01:47:05;;;;;;;0.45;0.20;;;;;;;6.87;82.24;98232.88;5045116;28;20124;-80
2023/01/15 01:49:30;;;;;;;1.52;0.45;;;;;;;6.79;83.47;98222.63;5044763;28;20171;-80
2023/01/15 01:52:00;;;;;;;1.97;0.40;;;;;;;6.67;82.64;98224.84;5044964;28;20123;-80
2023/01/15 01:54:30;;;;;;;1.02;0.35;;;;;;;6.67;84.30;98222.13;5044789;28;20269;-80
2023/01/15 01:56:56;;;;;;;1.20;0.17;;;;;;;6.81;83.88;98230.47;5044740;28;20044;-80
2023/01/15 01:59:22;;;;;;;1.65;0.30;;;;;;;6.69;84.16;98223.44;5044433;28;20040;-79
2023/01/15 02:01:48;;;;;;;1.05;0.57;;;;;;;6.75;83.03;98230.47;5045271;28;20025;-80
2023/01/15 02:04:16;;;;;;;2.28;0.32;;;;;;;6.65;82.72;98223.19;5044994;28;20032;-80
2023/01/15 02:06:42;;;;;;;0.40;0.30;;;;;;;6.76;82.97;98226.69;5044535;28;20048;-80
2023/01/15 02:09:07;;;;;;;1.48;0.30;;;;;;;6.70;82.71;98229.69;5044368;28;20057;-80
2023/01/15 02:11:34;;;;;;;1.95;0.60;;;;;;;6.57;83.07;98221.06;5044978;28;20098;-80
2023/01/15 02:14:24;;;;;;;2.60;0.40;;;;;;;6.84;83.60;98227.19;5044612;28;20162;-81
2023/01/15 02:17:16;;;;;;;2.63;0.63;;;;;;;6.96;83.07;98226.84;5044463;28;20036;-80
2023/01/15 02:20:04;;;;;;;1.63;0.50;;;;;;;6.74;82.16;98244.28;5044639;28;20044;-81
2023/01/15 02:22:44;;;;;;;6.65;0.60;;;;;;;6.82;82.19;98235.59;5044842;28;20071;-81
2023/01/15 02:25:18;;;;;;;1.95;0.50;;;;;;;6.91;82.09;98240.44;5044649;28;20397;-81
2023/01/15 02:27:48;;;;;;;;;;;;;;;6.89;81.84;98235.31;5044527;28;20036;-80
2023/01/15 02:30:27;;;;;;;3.00;0.57;;;;;;;6.99;82.20;98229.03;5044275;28;19924;-81
2023/01/15 02:32:58;;;;;;;3.05;0.55;;;;;;;6.97;82.67;98228.50;5043989;28;20195;-80
2023/01/15 02:35:33;;;;;;;2.45;0.28;;;;;;;6.91;82.41;98224.19;5044635;28;20033;-80
2023/01/15 02:38:03;;;;;;;4.07;0.63;;;;;;;6.86;82.47;98223.13;5043937;28;20102;-80
2023/01/15 02:40:30;;;;;;;4.78;1.10;;;;;;;6.77;82.52;98222.09;5043966;28;20056;-81
2023/01/15 02:42:58;;;;;;;5.05;0.60;;;;;;;6.91;82.74;98210.63;5044332;28;20045;-80
2023/01/15 02:45:29;;;;;;;4.13;0.50;;;;;;;6.85;82.17;98207.97;5044192;28;20157;-81
2023/01/15 02:47:59;;;;;;;1.55;0.30;;;;;;;6.81;82.36;98211.50;5043754;28;20040;-80
2023/01/15 02:50:30;;;;;;;2.25;0.50;;;;;;;6.81;82.94;98225.88;5044081;28;20115;-81
2023/01/15 02:53:04;;;;;;;3.53;0.32;;;;;;;6.80;81.44;98221.53;5043830;28;20044;-81
2023/01/15 02:55:34;;;;;;;1.15;0.50;;;;;;;6.88;81.96;98212.00;5044159;28;20798;-81
2023/01/15 02:58:06;;;;;;;1.42;0.30;;;;;;;6.82;82.13;98208.50;5043519;28;20044;-81
2023/01/15 03:00:35;;;;;;;1.10;0.35;;;;;;;6.84;82.00;98184.66;5043873;28;20858;-79
2023/01/15 03:03:13;;;;;;;2.20;0.70;;;;;;;6.60;81.18;98187.19;5043390;28;20032;-80
2023/01/15 03:05:46;;;;;;;2.42;0.47;;;;;;;6.63;82.26;98179.31;5043788;28;20483;-80
2023/01/15 03:08:12;;;;;;;12.50;1.13;;;;;;;6.69;82.17;98166.56;5043284;28;20124;-80
2023/01/15 03:10:55;;;;;;;3.65;0.70;;;;;;;6.82;80.90;98170.59;5043426;28;20100;-79
2023/01/15 03:13:30;;;;;;;3.08;0.30;;;;;;;6.74;81.36;98201.78;5043323;28;20144;-80
2023/01/15 03:16:36;;;;;;;2.22;0.40;;;;;;;6.59;80.87;98202.63;5043316;28;20095;-80
2023/01/15 03:19:02;;;;;;;10.32;0.95;;;;;;;6.70;81.49;98194.47;5043228;28;20037;-80
2023/01/15 03:21:45;;;;;;;1.67;0.93;;;;;;;6.76;81.16;98194.19;5042990;28;20036;-80
2023/01/15 03:24:12;;;;;;;2.70;1.00;;;;;;;6.72;80.87;98203.13;5043352;28;20037;-79
2023/01/15 03:26:38;;;;;;;1.92;0.40;;;;;;;6.61;80.99;98196.97;5042724;28;20024;-80
2023/01/15 03:29:07;;;;;;;2.28;0.45;;;;;;;6.74;80.88;98195.53;5042513;28;20055;-79
2023/01/15 03:31:34;;;;;;;0.95;0.50;;;;;;;6.70;80.64;98189.06;5042987;28;20033;-79
2023/01/15 03:33:59;;;;;;;1.73;0.43;;;;;;;6.83;80.97;98195.78;5042931;28;20098;-80
2023/01/15 03:36:25;;;;;;;4.05;1.67;;;;;;;6.94;81.14;98194.63;5042861;28;20032;-80
2023/01/15 03:38:51;;;;;;;2.30;0.32;;;;;;;6.70;79.83;98189.06;5042979;28;20041;-80
2023/01/15 03:41:43;;;;;;;1.48;0.50;;;;;;;6.73;80.35;98183.09;5043112;28;20123;-80
2023/01/15 03:44:20;;;;;;;1.73;0.65;;;;;;;6.72;80.69;98181.47;5043060;28;20029;-80
2023/01/15 03:47:12;;;;;;;1.83;0.70;;;;;;;6.82;80.57;98175.19;5042084;28;20044;-80
2023/01/15 03:49:54;;;;;;;2.13;0.40;;;;;;;6.79;80.51;98163.03;5042878;28;20040;-81
2023/01/15 03:52:29;;;;;;;7.03;0.40;;;;;;;6.65;80.21;98160.13;5043043;28;20068;-80
2023/01/15 03:55:10;;;;;;;1.65;0.32;;;;;;;6.68;81.18;98166.84;5043313;28;20221;-80
2023/01/15 03:57:41;;;;;;;3.42;0.82;;;;;;;6.53;80.52;98168.53;5042240;28;20060;-79
2023/01/15 04:00:14;;;;;;;3.92;0.80;;;;;;;6.48;81.43;98177.50;5043299;28;20033;-80
2023/01/15 04:02:41;;;;;;;2.13;0.40;;;;;;;6.51;81.39;98166.13;5042930;28;20029;-80
2023/01/15 04:05:07;;;;;;;3.08;0.75;;;;;;;6.68;81.67;98172.28;5042843;28;20033;-79
2023/01/15 04:07:32;;;;;;;0.75;0.20;;;;;;;6.64;80.76;98175.56;5042516;28;20359;-79
2023/01/15 04:09:57;;;;;;;1.58;0.40;;;;;;;6.82;80.74;98183.31;5042475;28;20043;-80
2023/01/15 04:12:23;;;;;;;1.83;0.57;;;;;;;6.69;80.46;98190.16;5042508;28;20068;-81
2023/01/15 04:14:48;;;;;;;2.92;1.00;;;;;;;6.76;80.65;98187.94;5042601;28;20110;-80
2023/01/15 04:17:13;;;;;;;3.03;0.60;;;;;;;6.68;81.00;98188.53;5042095;28;20081;-79
2023/01/15 04:19:38;;;;;;;1.20;0.30;;;;;;;6.63;80.96;98179.31;5043294;28;20032;-80
2023/01/15 04:22:04;;;;;;;3.83;0.60;;;;;;;6.84;80.64;98195.50;5042978;28;20289;-79
2023/01/15 04:24:29;;;;;;;1.98;0.60;;;;;;;6.51;80.30;98186.97;5042939;28;20032;-80
2023/01/15 04:26:55;;;;;;;1.98;0.80;;;;;;;6.59;80.96;98183.69;5042111;28;21154;-79
2023/01/15 04:29:20;;;;;;;4.80;1.00;;;;;;;6.64;80.80;98178.25;5040854;28;20059;-80
2023/01/15 04:31:45;;;;;;;3.50;0.90;;;;;;;6.58;80.33;98178.53;5042464;28;20337;-80
2023/01/15 04:34:11;;;;;;;2.05;0.93;;;;;;;6.50;80.93;98177.22;5042515;28;20025;-80
2023/01/15 04:36:36;;;;;;;1.73;0.40;;;;;;;6.45;81.59;98175.34;5041029;28;20033;-79
2023/01/15 04:39:03;;;;;;;2.63;0.50;;;;;;;6.54;81.76;98183.72;5042305;28;20044;-79
2023/01/15 04:44:12;;;;;;;3.70;0.45;;;;;;;6.40;81.48;98197.03;5042592;28;20102;-80
2023/01/15 04:46:43;;;;;;;3.93;0.80;;;;;;;6.53;81.45;98195.63;5042227;28;20494;-79
2023/01/15 04:49:12;;;;;;;2.88;0.50;;;;;;;6.44;81.06;98183.75;5042042;28;20359;-79
2023/01/15 04:51:38;;;;;;;4.63;0.50;;;;;;;6.30;82.37;98187.84;5041982;28;21353;-80
2023/01/15 04:54:05;;;;;;;2.72;0.95;;;;;;;6.26;82.24;98177.84;5042618;28;20047;-79
2023/01/15 04:56:31;;;;;;;7.82;1.95;;;;;;;6.38;81.90;98167.53;5043908;28;20033;-80
2023/01/15 04:59:00;;;;;;;6.53;1.45;;;;;;;6.26;81.75;98165.13;5045708;28;20470;-80
2023/01/15 05:01:26;;;;;;;2.10;0.95;;;;;;;6.31;81.87;98172.41;5046220;28;20143;-79
2023/01/15 05:03:51;;;;;;;3.97;0.80;;;;;;;6.37;81.25;98176.72;5046138;28;20119;-80
2023/01/15 05:06:17;;;;;;;2.83;1.35;;;;;;;6.41;81.35;98187.81;5046039;28;20033;-80
2023/01/15 05:08:43;;;;;;;5.50;0.75;;;;;;;6.46;81.19;98187.00;5046029;28;20278;-80
2023/01/15 05:11:08;;;;;;;3.95;0.98;;;;;;;6.46;80.75;98190.50;5045755;28;20176;-80
2023/01/15 05:13:34;;;;;;;8.75;1.40;;;;;;;6.45;81.66;98182.69;5045420;28;20466;-81
2023/01/15 05:16:17;;;;;;;4.32;0.55;;;;;;;6.45;80.52;98182.69;5045985;28;20191;-80
2023/01/15 05:18:44;;;;;;;4.63;2.05;;;;;;;6.39;80.96;98187.28;5045300;28;20042;-79
2023/01/15 05:21:19;;;;;;;4.88;1.05;;;;;;;6.38;80.52;98172.94;5045576;28;20445;-81
2023/01/15 05:23:45;;;;;;;6.53;0.80;;;;;;;6.48;81.29;98177.50;5045760;28;20052;-79
2023/01/15 05:26:11;;;;;;;3.78;0.85;;;;;;;6.34;80.29;98188.13;5043852;28;20186;-80
2023/01/15 05:28:36;;;;;;;3.13;0.68;;;;;;;6.45;81.05;98193.50;5044163;28;20029;-80
2023/01/15 05:31:10;;;;;;;1.95;0.57;;;;;;;6.56;80.40;98195.06;5045259;28;20036;-79
2023/01/15 05:33:36;;;;;;;5.00;0.80;;;;;;;6.42;79.86;98195.69;5045058;28;20543;-80
2023/01/15 05:36:06;;;;;;;9.55;2.75;;;;;;;6.43;80.18;98180.22;5045609;28;20040;-80
2023/01/15 05:38:32;;;;;;;5.22;1.40;;;;;;;6.40;81.02;98186.19;5044848;28;20037;-79
2023/01/15 05:40:58;;;;;;;4.05;1.65;;;;;;;6.38;79.46;98194.59;5044987;28;20036;-80
2023/01/15 05:43:24;;;;;;;4.95;0.95;;;;;;;6.49;81.06;98189.16;5045046;28;20021;-80
2023/01/15 05:45:49;;;;;;;3.50;1.25;;;;;;;6.54;79.90;98191.84;5045478;28;20059;-80
2023/01/15 05:48:14;;;;;;;3.80;0.70;;;;;;;6.40;80.32;98181.59;5043866;28;20037;-80
2023/01/15 05:50:39;;;;;;;1.00;0.50;;;;;;;6.45;80.61;98188.09;5044974;28;20032;-80
2023/01/15 05:53:06;;;;;;;2.40;0.50;;;;;;;6.46;80.32;98170.75;5044871;28;20258;-79
2023/01/15 05:55:31;;;;;;;23.30;1.20;;;;;;;6.50;80.18;98174.53;5044994;28;20033;-78
2023/01/15 05:57:57;;;;;;;4.55;1.20;;;;;;;6.51;80.15;98181.53;5044643;28;20052;-80
2023/01/15 06:00:22;;;;;;;5.30;1.17;;;;;;;6.38;80.12;98189.19;5045185;28;20036;-80
2023/01/15 06:02:49;;;;;;;14.80;1.05;;;;;;;6.35;81.05;98181.59;5045014;28;20029;-81
2023/01/15 06:05:18;;;;;;;4.50;1.60;;;;;;;6.30;80.32;98193.25;5045343;28;20032;-80
2023/01/15 06:07:44;;;;;;;5.20;1.17;;;;;;;6.14;81.38;98202.50;5043945;28;20033;-80
2023/01/15 06:10:09;;;;;;;3.83;0.65;;;;;;;6.35;81.49;98200.56;5044504;28;20051;-80
2023/01/15 06:12:34;;;;;;;3.15;1.17;;;;;;;6.42;81.23;98203.78;5044434;28;20486;-80
2023/01/15 06:15:00;;;;;;;5.28;2.30;;;;;;;6.53;80.81;98206.44;5044649;28;20543;-80
2023/01/15 06:17:25;;;;;;;3.10;0.60;;;;;;;6.49;80.16;98216.22;5043981;28;20068;-80
2023/01/15 06:19:50;;;;;;;2.40;1.10;;;;;;;6.55;80.69;98231.34;5044639;28;20262;-80
2023/01/15 06:22:17;;;;;;;3.63;0.73;;;;;;;6.24;80.75;98207.91;5043252;28;20290;-80
2023/01/15 06:24:42;;;;;;;5.45;1.42;;;;;;;6.36;80.76;98213.00;5044843;28;20305;-80
2023/01/15 06:27:07;;;;;;;3.90;0.60;;;;;;;6.46;80.05;98219.47;5044322;28;20052;-81
2023/01/15 06:29:32;;;;;;;3.57;0.53;;;;;;;6.33;80.35;98221.66;5044562;28;20304;-79
2023/01/15 06:31:58;;;;;;;5.40;2.03;;;;;;;6.36;80.76;98221.13;5044299;28;20250;-80
2023/01/15 06:34:23;;;;;;;3.45;1.40;;;;;;;6.57;79.60;98215.63;5044512;28;20504;-81
2023/01/15 06:36:48;;;;;;;6.63;1.50;;;;;;;6.49;79.65;98217.03;5043911;28;20128;-79
2023/01/15 06:39:13;;;;;;;5.70;1.03;;;;;;;6.58;79.65;98209.16;5044585;28;20274;-81
2023/01/15 06:47:20;;;;;;;5.82;0.80;;;;;;;6.37;79.83;98225.44;5044098;28;20063;-80
2023/01/15 06:49:46;;;;;;;5.40;1.60;;;;;;;6.37;79.72;98225.44;5044455;28;20104;-80
2023/01/15 06:52:11;;;;;;;8.38;1.80;;;;;;;6.55;79.75;98215.09;5044388;28;20044;-80
2023/01/15 06:54:37;;;;;;;4.53;1.52;;;;;;;6.62;79.48;98225.66;5044281;28;20370;-81
2023/01/15 06:57:03;;;;;;;6.13;1.63;;;;;;;6.65;79.45;98215.06;5043599;28;20114;-79
2023/01/15 06:59:28;;;;;;;4.32;0.80;;;;;;;6.70;79.31;98218.84;5042445;28;20056;-80
2023/01/15 07:01:54;;;;;;;9.57;1.48;;;;;;;6.64;79.15;98224.28;5042686;28;20055;-79
2023/01/15 07:04:19;;;;;;;7.28;1.50;;;;;;;6.45;79.42;98215.16;5044513;28;20033;-80
2023/01/15 07:06:44;;;;;;;7.70;2.07;;;;;;;6.38;80.07;98223.56;5044258;28;20033;-80
2023/01/15 07:09:10;;;;;;;7.65;1.40;;;;;;;6.37;80.47;98213.81;5043578;28;20859;-81
2023/01/15 07:11:48;;;;;;;4.68;1.42;;;;;;;6.44;80.19;98214.34;5043453;28;20689;-80
2023/01/15 07:14:17;;;;;;;8.23;1.20;;;;;;;6.46;79.78;98216.78;5043869;28;20048;-80
2023/01/15 07:16:42;;;;;;;7.40;1.75;;;;;;;6.37;80.38;98220.03;5043459;28;20024;-80
2023/01/15 07:19:08;;;;;;;7.25;1.00;;;;;;;6.44;80.49;98221.66;5043112;28;20040;-80
2023/01/15 07:21:33;;;;;;;6.28;1.27;;;;;;;6.39;80.55;98217.03;5043658;28;20355;-80
2023/01/15 07:23:59;;;;;;;8.45;3.63;;;;;;;6.35;80.51;98216.78;5043636;28;20124;-78
2023/01/15 07:26:25;;;;;;;4.65;2.00;;;;;;;6.34;79.95;98204.34;5042092;28;20033;-80
2023/01/15 07:28:50;;;;;;;4.65;2.08;;;;;;;6.41;80.12;98215.69;5043128;28;20336;-80
2023/01/15 07:31:16;;;;;;;3.27;1.60;;;;;;;6.37;80.22;98236.28;5043503;28;20486;-80
2023/01/15 07:33:41;;;;;;;6.90;1.10;;;;;;;6.34;80.32;98223.31;5043457;28;20345;-79
2023/01/15 07:36:06;;;;;;;25.70;2.70;;;;;;;6.34;80.42;98227.91;5043503;28;20254;-79
2023/01/15 07:38:32;;;;;;;5.38;1.05;;;;;;;6.24;79.86;98234.97;5043238;28;20265;-80
2023/01/15 07:51:56;;;;;;;4.22;0.90;;;;;;;6.24;78.79;98239.56;5043363;28;20039;-80
2023/01/15 07:54:21;;;;;;;2.45;0.82;;;;;;;6.37;79.08;98232.75;5042915;28;20033;-80
2023/01/15 07:56:47;;;;;;;3.15;1.40;;;;;;;6.42;78.69;98254.41;5042885;28;20378;-80
2023/01/15 07:59:12;;;;;;;4.45;1.48;;;;;;;6.32;78.81;98257.97;5042432;28;20029;-80
2023/01/15 08:01:37;;;;;;;3.03;0.83;;;;;;;6.16;78.97;98257.19;5042935;28;20040;-80
2023/01/15 08:04:03;;;;;;;5.83;1.90;;;;;;;6.29;79.67;98266.63;5042963;28;20273;-79
2023/01/15 08:06:28;;;;;;;3.75;0.77;;;;;;;6.21;79.57;98272.56;5042972;28;20261;-80
2023/01/15 08:08:53;;;;;;;5.00;1.40;;;;;;;6.15;78.99;98264.47;5042701;28;20037;-80
2023/01/15 08:16:47;;;;;;;8.02;1.48;;;;;;;6.28;79.11;98287.47;5042648;28;20106;-80
2023/01/15 08:19:12;;;;;;;4.35;1.42;;;;;;;6.24;79.27;98282.88;5042537;28;20470;-79
2023/01/15 08:21:37;;;;;;;6.73;1.13;;;;;;;6.13;79.73;98285.59;5043124;28;20060;-84
2023/01/15 08:24:02;;;;;;;6.95;1.17;;;;;;;6.28;79.47;98278.53;5043098;28;20296;-81
2023/01/15 08:26:28;;;;;;;5.57;1.00;;;;;;;6.30;79.12;98273.66;5042278;28;20027;-81
2023/01/15 08:28:53;;;;;;;21.10;1.83;;;;;;;6.26;78.98;98273.41;5042584;28;20017;-80
2023/01/15 08:31:18;;;;;;;4.70;1.10;;;;;;;6.33;78.92;98283.94;5043636;28;20273;-80
2023/01/15 08:33:43;;;;;;;8.40;2.23;;;;;;;6.22;78.34;98274.22;5046598;28;20292;-80
2023/01/15 08:36:09;;;;;;;3.97;1.40;;;;;;;6.15;78.13;98288.81;5047039;28;20355;-80
2023/01/15 08:38:34;;;;;;;2.58;0.70;;;;;;;6.15;78.47;98309.66;5046839;28;20509;-80
2023/01/15 08:41:01;;;;;;;10.57;1.17;;;;;;;6.18;76.52;98295.59;5046624;28;20363;-81
2023/01/15 08:43:26;;;;;;;4.55;0.73;;;;;;;6.24;77.78;98308.06;5047178;28;20503;-79
2023/01/15 08:45:56;;;;;;;4.93;1.23;;;;;;;6.16;76.62;98300.47;5046608;28;20064;-80
2023/01/15 08:48:22;;;;;;;6.40;1.10;;;;;;;6.19;76.48;98302.63;5046476;28;20489;-81
2023/01/15 08:50:49;;;;;;;3.08;1.08;;;;;;;6.16;76.49;98306.69;5046766;28;20067;-80
2023/01/15 08:53:14;;;;;;;2.28;1.10;;;;;;;6.18;76.44;98319.97;5046741;28;20033;-79
2023/01/15 08:55:39;;;;;;;9.17;1.50;;;;;;;6.34;76.52;98315.34;5046258;28;20025;-80
2023/01/15 08:58:05;;;;;;;3.13;1.17;;;;;;;6.28;76.48;98302.91;5046066;28;20269;-80
2023/01/15 09:00:30;;;;;;;6.17;1.30;;;;;;;6.40;75.81;98300.72;5046376;28;20024;-80
2023/01/15 09:02:56;;;;;;;1.30;0.63;;;;;;;6.25;75.54;98320.50;5045837;28;20250;-79
2023/01/15 09:05:21;;;;;;;5.25;1.65;;;;;;;6.24;75.69;98307.22;5046419;28;20285;-80
2023/01/15 09:07:46;;;;;;;7.90;1.60;;;;;;;6.27;74.99;98312.91;5045966;28;20029;-79
2023/01/15 09:10:12;;;;;;;5.77;0.70;;;;;;;6.29;74.92;98318.84;5046214;28;20265;-81
2023/01/15 09:12:37;;;;;;;6.75;0.80;;;;;;;6.27;75.07;98322.91;5046024;28;20340;-79
2023/01/15 09:15:03;;;;;;;3.20;1.13;;;;;;;6.31;75.24;98315.88;5045876;28;20847;-80
2023/01/15 09:17:28;;;;;;;2.58;0.70;;;;;;;6.44;75.37;98332.66;5044088;28;20264;-80
2023/01/15 09:19:53;;;;;;;4.10;0.70;;;;;;;6.25;75.03;98335.91;5045725;28;20098;-81
2023/01/15 09:22:19;;;;;;;5.63;0.90;;;;;;;6.11;75.38;98336.47;5046241;28;20354;-80
2023/01/15 09:24:45;;;;;;;2.70;0.82;;;;;;;6.06;75.88;98339.19;5045665;28;20029;-79
2023/01/15 09:27:11;;;;;;;4.28;1.02;;;;;;;6.18;75.36;98326.16;5045069;28;20025;-80
2023/01/15 09:29:36;;;;;;;1.83;0.68;;;;;;;6.07;74.18;98324.53;5045396;28;20044;-77
2023/01/15 09:32:02;;;;;;;3.00;1.58;;;;;;;6.00;73.97;98332.09;5045426;28;20182;-79
2023/01/15 09:34:27;;;;;;;3.30;0.50;;;;;;;6.06;74.54;98336.47;5045531;28;20037;-80
2023/01/15 09:36:52;;;;;;;3.95;0.73;;;;;;;6.14;73.43;98335.91;5045286;28;20029;-79
2023/01/15 09:39:17;;;;;;;4.23;0.80;;;;;;;6.12;73.28;98335.34;5044463;28;20132;-78
2023/01/15 09:42:04;;;;;;;11.23;1.65;;;;;;;6.01;73.71;98329.13;5044928;28;20265;-80
2023/01/15 09:45:07;;;;;;;4.82;1.00;;;;;;;6.00;72.83;98315.88;5038220;28;20041;-80
2023/01/15 09:47:38;;;;;;;5.82;0.60;;;;;;;6.03;73.68;98320.72;5041957;28;20466;-80
2023/01/15 09:50:24;;;;;;;1.42;0.40;;;;;;;5.87;74.70;98315.31;5045365;28;20049;-80
2023/01/15 09:52:49;;;;;;;2.10;0.60;;;;;;;5.94;74.78;98315.03;5044719;28;20048;-80
2023/01/15 09:55:25;;;;;;;3.77;0.80;;;;;;;5.91;74.96;98313.69;5043606;28;20049;-80
2023/01/15 09:57:55;;;;;;;3.70;0.73;;;;;;;6.01;75.26;98317.47;5043243;28;20044;-80
2023/01/15 10:00:28;;;;;;;4.25;1.27;;;;;;;6.07;74.84;98311.00;5045521;28;20106;-80
2023/01/15 10:03:08;;;;;;;3.35;0.57;;;;;;;6.12;74.93;98311.00;5045473;28;21097;-79
2023/01/15 10:05:36;;;;;;;5.00;0.90;;;;;;;6.06;75.44;98295.88;5045403;28;20152;-80
2023/01/15 10:08:16;;;;;;;3.70;0.60;;;;;;;6.07;75.03;98298.31;5045401;28;20037;-80
2023/01/15 10:10:48;;;;;;;2.70;0.75;;;;;;;5.87;75.43;98299.09;5043195;28;20896;-79
2023/01/15 10:13:28;;;;;;;3.42;1.30;;;;;;;6.06;75.57;98293.97;5044908;28;20037;-80
2023/01/15 10:15:54;;;;;;;2.38;0.65;;;;;;;6.25;75.01;98322.38;5044781;28;20048;-80
2023/01/15 10:18:22;;;;;;;2.08;0.77;;;;;;;6.38;74.20;98323.72;5044593;28;20040;-80
2023/01/15 10:21:02;;;;;;;3.55;1.58;;;;;;;6.31;74.39;98329.41;5044680;28;20067;-79
2023/01/15 10:23:32;;;;;;;3.05;0.63;;;;;;;6.50;74.93;98337.81;5044787;28;20068;-79
2023/01/15 10:26:41;;;;;;;2.42;1.10;;;;;;;6.34;73.92;98334.28;5044596;28;20029;-80
2023/01/15 10:29:45;;;;;;;8.45;2.40;;;;;;;6.57;73.83;98332.09;5043669;28;20085;-80
2023/01/15 10:32:38;;;;;;;5.68;2.20;;;;;;;6.49;72.29;98329.97;5044759;28;20048;-80
2023/01/15 10:35:21;;;;;;;8.80;1.83;;;;;;;6.61;72.77;98344.00;5042712;28;20789;-81
2023/01/15 10:38:22;;;;;;;5.63;1.13;;;;;;;6.74;71.48;98330.97;5042729;28;20071;-80
2023/01/15 10:41:04;;;;;;;7.75;1.13;;;;;;;6.48;70.32;98328.31;5044216;28;20301;-80
2023/01/15 10:43:51;;;;;;;4.30;0.90;;;;;;;6.50;70.93;98339.69;5043889;28;20059;-79
2023/01/15 10:46:25;;;;;;;6.25;0.85;;;;;;;6.56;71.56;98330.47;5044911;28;20056;-79
2023/01/15 10:48:56;;;;;;;3.97;0.88;;;;;;;6.37;71.61;98333.75;5043851;28;20843;-79
2023/01/15 10:51:40;;;;;;;3.72;1.27;;;;;;;6.50;71.69;98329.69;5042669;28;20058;-80
2023/01/15 10:54:43;;;;;;;5.28;1.05;;;;;;;6.51;70.29;98333.19;5044292;28;20048;-80
2023/01/15 10:57:26;;;;;;;5.07;2.08;;;;;;;6.35;70.08;98324.25;5043793;28;20029;-80
2023/01/15 10:59:59;;;;;;;5.47;1.87;;;;;;;6.47;69.94;98326.72;5041205;28;20053;-80
2023/01/15 11:02:37;;;;;;;9.13;2.70;;;;;;;6.45;70.75;98328.88;5044368;28;20595;-79
2023/01/15 11:05:03;;;;;;;11.07;1.30;;;;;;;6.46;69.82;98330.47;5041958;28;20041;-80
2023/01/15 11:07:39;;;;;;;3.67;1.05;;;;;;;6.39;70.14;98330.75;5043689;28;20861;-80
2023/01/15 11:10:14;;;;;;;12.25;1.52;;;;;;;6.51;69.49;98334.00;5044068;28;20051;-80
2023/01/15 11:21:28;;;;;;;22.15;3.38;;;;;;;6.80;68.84;98346.13;5044363;28;20040;-80
2023/01/15 11:23:55;;;;;;;3.65;0.70;;;;;;;6.56;68.54;98354.84;5044191;28;20052;-80
2023/01/15 11:26:30;;;;;;;6.93;2.05;;;;;;;6.46;69.12;98342.13;5044027;28;20068;-81
2023/01/15 11:28:58;;;;;;;6.57;1.10;;;;;;;6.61;68.88;98335.88;5043130;28;20037;-81
2023/01/15 11:31:34;;;;;;;14.05;1.70;;;;;;;6.52;68.66;98356.47;5044801;28;20029;-81
2023/01/15 11:34:02;;;;;;;3.40;0.85;;;;;;;6.47;69.46;98356.50;5045269;28;20476;-88
2023/01/15 11:36:28;;;;;;;12.40;2.20;;;;;;;6.67;68.23;98335.88;5044046;28;20028;-84
2023/01/15 11:38:54;;;;;;;4.93;1.15;;;;;;;6.54;67.87;98340.78;5043111;28;20999;-81
2023/01/15 11:52:45;;;;;;;4.40;0.90;;;;;;;6.60;67.45;98320.72;5043331;28;20566;-79
2023/01/15 11:55:16;;;;;;;5.32;0.93;;;;;;;6.68;67.62;98337.50;5041709;28;20265;-80
2023/01/15 11:57:43;;;;;;;3.90;0.88;;;;;;;6.55;66.61;98345.09;5040990;28;20058;-80
2023/01/15 12:00:31;;;;;;;4.18;1.25;;;;;;;6.61;67.34;98333.16;5043028;28;20438;-80
2023/01/15 12:03:00;;;;;;;17.73;2.25;;;;;;;6.63;67.63;98320.16;5042795;28;20530;-78
2023/01/15 12:05:33;;;;;;;4.22;1.20;;;;;;;6.82;67.80;98351.28;5043179;28;20036;-79
2023/01/15 12:08:08;;;;;;;10.63;1.70;;;;;;;6.79;67.93;98332.88;5041222;28;20458;-81
2023/01/15 12:11:03;;;;;;;2.97;1.27;;;;;;;6.70;67.71;98338.03;5042437;28;20432;-85
2023/01/15 12:13:38;;;;;;;2.35;0.55;;;;;;;6.57;67.36;98350.25;5042731;28;20043;-86
2023/01/15 12:16:24;;;;;;;2.40;1.02;;;;;;;6.67;67.05;98346.72;5042808;28;20048;-80
2023/01/15 12:18:57;;;;;;;3.72;0.85;;;;;;;6.65;66.75;98328.81;5041867;28;20148;-79
2023/01/15 12:21:39;;;;;;;11.65;1.42;;;;;;;6.61;65.98;98332.38;5042899;28;20478;-84
2023/01/15 12:24:23;;;;;;;9.73;1.98;;;;;;;6.62;66.78;98323.16;5042453;28;20045;-82
2023/01/15 12:27:07;;;;;;;;;;;;;;;6.68;67.03;98316.63;5042770;28;20029;-84
2023/01/15 12:30:13;;;;;;;19.27;1.17;;;;;;;6.72;67.15;98327.72;5041258;28;19967;-84
2023/01/15 12:32:49;;;;;;;4.22;2.20;;;;;;;6.76;67.57;98318.78;5034491;28;20072;-79
2023/01/15 12:35:27;;;;;;;5.95;1.08;;;;;;;6.62;67.60;98315.03;5042199;28;20037;-79
2023/01/15 12:38:17;;;;;;;2.78;0.60;;;;;;;6.86;67.55;98317.13;5041884;28;20540;-79
2023/01/15 12:40:59;;;;;;;4.82;0.70;;;;;;;6.79;67.07;98317.44;5042620;28;20049;-83
2023/01/15 12:46:15;;;;;;;2.63;0.60;;;;;;;6.73;66.75;98329.38;5040945;28;20114;-82
2023/01/15 12:48:57;;;;;;;7.95;1.05;;;;;;;6.73;66.71;98291.44;5041470;28;20037;-82